sensor_id;sensor_type;location;lat;lon;timestamp;P1;durP1;ratioP1;P2;durP2;ratioP2
37445;SDS011;23307;51.136;14.942;2022-10-16T00:00:40;7.50;;;6.80;;
37445;SDS011;23307;51.136;14.942;2022-10-16T00:03:07;7.53;;;6.85;;
37445;SDS011;23307;51.136;14.942;2022-10-16T00:05:33;6.55;;;5.97;;
37445;SDS011;23307;51.136;14.942;2022-10-16T00:08:03;7.00;;;6.30;;
37445;SDS011;23307;51.136;14.942;2022-10-16T00:10:29;7.13;;;5.90;;
37445;SDS011;23307;51.136;14.942;2022-10-16T00:12:54;6.30;;;5.70;;
37445;SDS011;23307;51.136;14.942;2022-10-16T00:15:20;6.55;;;5.35;;
37445;SDS011;23307;51.136;14.942;2022-10-16T00:17:45;7.10;;;5.90;;
37445;SDS011;23307;51.136;14.942;2022-10-16T00:20:11;6.57;;;5.85;;
37445;SDS011;23307;51.136;14.942;2022-10-16T00:22:36;5.75;;;5.18;;
37445;SDS011;23307;51.136;14.942;2022-10-16T00:25:02;5.53;;;5.05;;
37445;SDS011;23307;51.136;14.942;2022-10-16T00:27:28;6.18;;;5.63;;
37445;SDS011;23307;51.136;14.942;2022-10-16T00:29:53;6.05;;;5.55;;
37445;SDS011;23307;51.136;14.942;2022-10-16T00:32:19;5.78;;;5.28;;
37445;SDS011;23307;51.136;14.942;2022-10-16T00:34:45;5.18;;;4.68;;
37445;SDS011;23307;51.136;14.942;2022-10-16T00:37:11;5.70;;;5.20;;
37445;SDS011;23307;51.136;14.942;2022-10-16T00:39:37;6.68;;;5.97;;
37445;SDS011;23307;51.136;14.942;2022-10-16T00:42:03;6.15;;;5.55;;
37445;SDS011;23307;51.136;14.942;2022-10-16T00:44:42;8.88;;;5.93;;
37445;SDS011;23307;51.136;14.942;2022-10-16T00:47:15;6.00;;;5.50;;
37445;SDS011;23307;51.136;14.942;2022-10-16T00:49:56;5.63;;;5.13;;
37445;SDS011;23307;51.136;14.942;2022-10-16T00:52:27;6.78;;;5.72;;
37445;SDS011;23307;51.136;14.942;2022-10-16T00:54:52;6.25;;;5.65;;
37445;SDS011;23307;51.136;14.942;2022-10-16T00:57:19;8.15;;;5.50;;
37445;SDS011;23307;51.136;14.942;2022-10-16T00:59:45;6.13;;;5.53;;
37445;SDS011;23307;51.136;14.942;2022-10-16T01:02:11;7.60;;;6.00;;
37445;SDS011;23307;51.136;14.942;2022-10-16T01:04:43;6.80;;;6.10;;
37445;SDS011;23307;51.136;14.942;2022-10-16T01:10:10;6.50;;;5.90;;
37445;SDS011;23307;51.136;14.942;2022-10-16T01:18:14;6.35;;;5.78;;
37445;SDS011;23307;51.136;14.942;2022-10-16T01:20:51;6.80;;;6.20;;
37445;SDS011;23307;51.136;14.942;2022-10-16T01:29:09;6.75;;;6.05;;
37445;SDS011;23307;51.136;14.942;2022-10-16T01:31:43;6.78;;;5.70;;
37445;SDS011;23307;51.136;14.942;2022-10-16T01:34:15;6.35;;;5.75;;
37445;SDS011;23307;51.136;14.942;2022-10-16T01:36:51;6.68;;;6.07;;
37445;SDS011;23307;51.136;14.942;2022-10-16T01:39:21;6.45;;;5.80;;
37445;SDS011;23307;51.136;14.942;2022-10-16T01:41:53;6.28;;;5.68;;
37445;SDS011;23307;51.136;14.942;2022-10-16T01:44:28;6.40;;;5.78;;
37445;SDS011;23307;51.136;14.942;2022-10-16T01:46:56;6.57;;;5.97;;
37445;SDS011;23307;51.136;14.942;2022-10-16T01:49:23;6.00;;;5.50;;
37445;SDS011;23307;51.136;14.942;2022-10-16T01:51:54;6.60;;;6.00;;
37445;SDS011;23307;51.136;14.942;2022-10-16T01:54:23;6.43;;;5.82;;
37445;SDS011;23307;51.136;14.942;2022-10-16T01:56:56;6.75;;;5.70;;
37445;SDS011;23307;51.136;14.942;2022-10-16T01:59:23;5.88;;;5.38;;
37445;SDS011;23307;51.136;14.942;2022-10-16T02:01:56;6.30;;;5.45;;
37445;SDS011;23307;51.136;14.942;2022-10-16T02:04:33;7.57;;;5.72;;
37445;SDS011;23307;51.136;14.942;2022-10-16T02:07:02;6.10;;;5.53;;
37445;SDS011;23307;51.136;14.942;2022-10-16T02:09:29;6.45;;;5.68;;
37445;SDS011;23307;51.136;14.942;2022-10-16T02:11:57;6.30;;;5.55;;
37445;SDS011;23307;51.136;14.942;2022-10-16T02:14:27;6.75;;;5.60;;
37445;SDS011;23307;51.136;14.942;2022-10-16T02:16:54;6.07;;;5.57;;
37445;SDS011;23307;51.136;14.942;2022-10-16T02:19:20;6.30;;;5.75;;
37445;SDS011;23307;51.136;14.942;2022-10-16T02:21:48;6.50;;;5.80;;
37445;SDS011;23307;51.136;14.942;2022-10-16T02:26:51;6.70;;;5.93;;
37445;SDS011;23307;51.136;14.942;2022-10-16T02:29:39;6.22;;;5.68;;
37445;SDS011;23307;51.136;14.942;2022-10-16T02:32:09;6.90;;;6.22;;
37445;SDS011;23307;51.136;14.942;2022-10-16T02:34:37;6.78;;;6.18;;
37445;SDS011;23307;51.136;14.942;2022-10-16T02:37:05;6.78;;;6.22;;
37445;SDS011;23307;51.136;14.942;2022-10-16T02:39:32;7.18;;;6.57;;
37445;SDS011;23307;51.136;14.942;2022-10-16T02:41:58;7.68;;;6.90;;
37445;SDS011;23307;51.136;14.942;2022-10-16T02:44:24;7.30;;;6.70;;
37445;SDS011;23307;51.136;14.942;2022-10-16T02:46:49;7.20;;;6.60;;
37445;SDS011;23307;51.136;14.942;2022-10-16T02:49:15;7.35;;;6.65;;
37445;SDS011;23307;51.136;14.942;2022-10-16T02:51:40;7.85;;;6.57;;
37445;SDS011;23307;51.136;14.942;2022-10-16T02:54:06;7.35;;;6.75;;
37445;SDS011;23307;51.136;14.942;2022-10-16T02:56:31;7.22;;;6.63;;
37445;SDS011;23307;51.136;14.942;2022-10-16T02:58:58;9.15;;;6.57;;
37445;SDS011;23307;51.136;14.942;2022-10-16T03:01:23;7.70;;;6.95;;
37445;SDS011;23307;51.136;14.942;2022-10-16T03:03:49;8.10;;;7.40;;
37445;SDS011;23307;51.136;14.942;2022-10-16T03:06:15;7.95;;;7.32;;
37445;SDS011;23307;51.136;14.942;2022-10-16T03:08:40;7.63;;;6.93;;
37445;SDS011;23307;51.136;14.942;2022-10-16T03:11:06;7.93;;;7.22;;
37445;SDS011;23307;51.136;14.942;2022-10-16T03:13:31;8.43;;;7.72;;
37445;SDS011;23307;51.136;14.942;2022-10-16T03:15:57;8.25;;;7.55;;
37445;SDS011;23307;51.136;14.942;2022-10-16T03:18:22;8.85;;;8.10;;
37445;SDS011;23307;51.136;14.942;2022-10-16T03:20:48;8.10;;;7.43;;
37445;SDS011;23307;51.136;14.942;2022-10-16T03:23:13;8.52;;;7.80;;
37445;SDS011;23307;51.136;14.942;2022-10-16T03:25:39;9.75;;;8.07;;
37445;SDS011;23307;51.136;14.942;2022-10-16T03:28:04;8.05;;;7.28;;
37445;SDS011;23307;51.136;14.942;2022-10-16T03:30:30;8.20;;;7.50;;
37445;SDS011;23307;51.136;14.942;2022-10-16T03:32:56;8.82;;;8.07;;
37445;SDS011;23307;51.136;14.942;2022-10-16T03:35:22;7.75;;;7.13;;
37445;SDS011;23307;51.136;14.942;2022-10-16T03:37:49;7.63;;;6.93;;
37445;SDS011;23307;51.136;14.942;2022-10-16T03:40:15;7.70;;;7.10;;
37445;SDS011;23307;51.136;14.942;2022-10-16T03:42:42;8.15;;;7.40;;
37445;SDS011;23307;51.136;14.942;2022-10-16T03:45:08;7.22;;;6.53;;
37445;SDS011;23307;51.136;14.942;2022-10-16T03:47:35;9.38;;;6.63;;
37445;SDS011;23307;51.136;14.942;2022-10-16T03:50:00;6.70;;;6.10;;
37445;SDS011;23307;51.136;14.942;2022-10-16T03:52:26;6.55;;;5.95;;
37445;SDS011;23307;51.136;14.942;2022-10-16T03:54:52;7.40;;;6.22;;
37445;SDS011;23307;51.136;14.942;2022-10-16T03:57:18;7.15;;;6.05;;
37445;SDS011;23307;51.136;14.942;2022-10-16T03:59:43;6.75;;;6.15;;
37445;SDS011;23307;51.136;14.942;2022-10-16T04:02:09;6.32;;;5.72;;
37445;SDS011;23307;51.136;14.942;2022-10-16T04:04:34;6.38;;;5.70;;
37445;SDS011;23307;51.136;14.942;2022-10-16T04:07:00;6.63;;;5.75;;
37445;SDS011;23307;51.136;14.942;2022-10-16T04:09:26;6.18;;;5.57;;
37445;SDS011;23307;51.136;14.942;2022-10-16T04:11:51;6.13;;;5.55;;
37445;SDS011;23307;51.136;14.942;2022-10-16T04:14:17;6.95;;;6.22;;
37445;SDS011;23307;51.136;14.942;2022-10-16T04:16:42;6.50;;;5.80;;
37445;SDS011;23307;51.136;14.942;2022-10-16T04:19:09;8.25;;;5.43;;
37445;SDS011;23307;51.136;14.942;2022-10-16T04:21:35;7.53;;;5.60;;
37445;SDS011;23307;51.136;14.942;2022-10-16T04:24:01;6.70;;;5.90;;
37445;SDS011;23307;51.136;14.942;2022-10-16T04:26:27;6.68;;;5.60;;
37445;SDS011;23307;51.136;14.942;2022-10-16T04:28:52;6.75;;;5.88;;
37445;SDS011;23307;51.136;14.942;2022-10-16T04:31:18;9.70;;;6.30;;
37445;SDS011;23307;51.136;14.942;2022-10-16T04:33:44;6.95;;;6.25;;
37445;SDS011;23307;51.136;14.942;2022-10-16T04:36:10;6.80;;;5.28;;
37445;SDS011;23307;51.136;14.942;2022-10-16T04:38:35;6.90;;;5.90;;
37445;SDS011;23307;51.136;14.942;2022-10-16T04:41:02;9.30;;;6.13;;
37445;SDS011;23307;51.136;14.942;2022-10-16T04:43:28;7.13;;;5.80;;
37445;SDS011;23307;51.136;14.942;2022-10-16T04:45:54;6.70;;;6.00;;
37445;SDS011;23307;51.136;14.942;2022-10-16T04:48:20;8.93;;;6.20;;
37445;SDS011;23307;51.136;14.942;2022-10-16T04:50:45;6.43;;;5.88;;
37445;SDS011;23307;51.136;14.942;2022-10-16T04:53:11;6.93;;;5.78;;
37445;SDS011;23307;51.136;14.942;2022-10-16T04:55:37;6.25;;;5.63;;
37445;SDS011;23307;51.136;14.942;2022-10-16T04:58:03;6.40;;;5.72;;
37445;SDS011;23307;51.136;14.942;2022-10-16T05:00:28;6.55;;;5.93;;
37445;SDS011;23307;51.136;14.942;2022-10-16T05:02:54;6.03;;;5.50;;
37445;SDS011;23307;51.136;14.942;2022-10-16T05:05:19;6.85;;;5.55;;
37445;SDS011;23307;51.136;14.942;2022-10-16T05:07:46;6.57;;;5.82;;
37445;SDS011;23307;51.136;14.942;2022-10-16T05:10:12;7.25;;;6.20;;
37445;SDS011;23307;51.136;14.942;2022-10-16T05:12:38;6.65;;;5.88;;
37445;SDS011;23307;51.136;14.942;2022-10-16T05:15:03;6.30;;;5.80;;
37445;SDS011;23307;51.136;14.942;2022-10-16T05:17:29;6.95;;;6.28;;
37445;SDS011;23307;51.136;14.942;2022-10-16T05:19:55;12.13;;;7.50;;
37445;SDS011;23307;51.136;14.942;2022-10-16T05:22:21;7.65;;;6.90;;
37445;SDS011;23307;51.136;14.942;2022-10-16T05:24:46;8.38;;;7.50;;
37445;SDS011;23307;51.136;14.942;2022-10-16T05:27:12;7.93;;;7.13;;
37445;SDS011;23307;51.136;14.942;2022-10-16T05:29:44;8.32;;;7.45;;
37445;SDS011;23307;51.136;14.942;2022-10-16T05:32:10;8.85;;;7.95;;
37445;SDS011;23307;51.136;14.942;2022-10-16T05:34:36;8.90;;;8.10;;
37445;SDS011;23307;51.136;14.942;2022-10-16T05:37:01;8.75;;;7.85;;
37445;SDS011;23307;51.136;14.942;2022-10-16T05:39:27;8.88;;;7.60;;
37445;SDS011;23307;51.136;14.942;2022-10-16T05:41:52;8.70;;;7.80;;
37445;SDS011;23307;51.136;14.942;2022-10-16T05:44:18;9.13;;;7.25;;
37445;SDS011;23307;51.136;14.942;2022-10-16T05:46:43;8.13;;;7.25;;
37445;SDS011;23307;51.136;14.942;2022-10-16T05:49:11;8.30;;;7.50;;
37445;SDS011;23307;51.136;14.942;2022-10-16T05:51:36;8.50;;;7.68;;
37445;SDS011;23307;51.136;14.942;2022-10-16T05:54:02;7.55;;;6.85;;
37445;SDS011;23307;51.136;14.942;2022-10-16T05:56:27;7.93;;;7.15;;
37445;SDS011;23307;51.136;14.942;2022-10-16T05:58:53;9.35;;;7.93;;
37445;SDS011;23307;51.136;14.942;2022-10-16T06:01:19;8.43;;;7.03;;
37445;SDS011;23307;51.136;14.942;2022-10-16T06:03:45;7.45;;;6.75;;
37445;SDS011;23307;51.136;14.942;2022-10-16T06:06:30;11.57;;;7.10;;
37445;SDS011;23307;51.136;14.942;2022-10-16T06:11:25;8.57;;;6.47;;
37445;SDS011;23307;51.136;14.942;2022-10-16T06:13:53;8.05;;;6.30;;
37445;SDS011;23307;51.136;14.942;2022-10-16T06:16:21;6.90;;;6.20;;
37445;SDS011;23307;51.136;14.942;2022-10-16T06:18:47;8.20;;;6.30;;
37445;SDS011;23307;51.136;14.942;2022-10-16T06:21:17;6.88;;;6.28;;
37445;SDS011;23307;51.136;14.942;2022-10-16T06:23:44;7.28;;;6.57;;
37445;SDS011;23307;51.136;14.942;2022-10-16T06:26:11;7.70;;;6.68;;
37445;SDS011;23307;51.136;14.942;2022-10-16T06:28:39;8.10;;;6.57;;
37445;SDS011;23307;51.136;14.942;2022-10-16T06:31:06;7.15;;;6.45;;
37445;SDS011;23307;51.136;14.942;2022-10-16T06:33:32;8.20;;;7.35;;
37445;SDS011;23307;51.136;14.942;2022-10-16T06:38:28;6.47;;;5.97;;
37445;SDS011;23307;51.136;14.942;2022-10-16T06:40:54;7.38;;;6.70;;
37445;SDS011;23307;51.136;14.942;2022-10-16T06:43:20;9.52;;;6.68;;
37445;SDS011;23307;51.136;14.942;2022-10-16T06:45:55;8.50;;;6.88;;
37445;SDS011;23307;51.136;14.942;2022-10-16T06:48:21;7.57;;;6.80;;
37445;SDS011;23307;51.136;14.942;2022-10-16T06:50:55;7.40;;;6.70;;
37445;SDS011;23307;51.136;14.942;2022-10-16T06:53:24;8.13;;;7.32;;
37445;SDS011;23307;51.136;14.942;2022-10-16T06:55:51;8.75;;;6.97;;
37445;SDS011;23307;51.136;14.942;2022-10-16T06:58:17;8.70;;;7.90;;
37445;SDS011;23307;51.136;14.942;2022-10-16T07:00:42;13.45;;;12.10;;
37445;SDS011;23307;51.136;14.942;2022-10-16T07:03:08;8.40;;;7.60;;
37445;SDS011;23307;51.136;14.942;2022-10-16T07:05:40;15.57;;;12.93;;
37445;SDS011;23307;51.136;14.942;2022-10-16T07:08:06;10.90;;;9.60;;
37445;SDS011;23307;51.136;14.942;2022-10-16T07:10:32;13.63;;;10.20;;
37445;SDS011;23307;51.136;14.942;2022-10-16T07:12:58;10.45;;;8.73;;
37445;SDS011;23307;51.136;14.942;2022-10-16T07:15:24;8.13;;;6.82;;
37445;SDS011;23307;51.136;14.942;2022-10-16T07:17:50;9.93;;;8.63;;
37445;SDS011;23307;51.136;14.942;2022-10-16T07:20:16;11.55;;;10.38;;
37445;SDS011;23307;51.136;14.942;2022-10-16T07:22:41;7.47;;;6.85;;
37445;SDS011;23307;51.136;14.942;2022-10-16T07:25:07;7.22;;;6.57;;
37445;SDS011;23307;51.136;14.942;2022-10-16T07:27:33;7.03;;;6.32;;
37445;SDS011;23307;51.136;14.942;2022-10-16T07:29:59;9.10;;;7.00;;
37445;SDS011;23307;51.136;14.942;2022-10-16T07:32:25;8.00;;;6.25;;
37445;SDS011;23307;51.136;14.942;2022-10-16T07:34:51;7.90;;;6.70;;
37445;SDS011;23307;51.136;14.942;2022-10-16T07:37:17;7.10;;;6.50;;
37445;SDS011;23307;51.136;14.942;2022-10-16T07:39:42;7.00;;;6.30;;
37445;SDS011;23307;51.136;14.942;2022-10-16T07:42:08;6.28;;;5.68;;
37445;SDS011;23307;51.136;14.942;2022-10-16T07:44:33;7.00;;;6.30;;
37445;SDS011;23307;51.136;14.942;2022-10-16T07:46:59;6.13;;;5.53;;
37445;SDS011;23307;51.136;14.942;2022-10-16T07:49:24;6.60;;;6.00;;
37445;SDS011;23307;51.136;14.942;2022-10-16T07:51:50;6.50;;;5.72;;
37445;SDS011;23307;51.136;14.942;2022-10-16T07:54:16;6.43;;;5.82;;
37445;SDS011;23307;51.136;14.942;2022-10-16T07:56:41;7.00;;;6.30;;
37445;SDS011;23307;51.136;14.942;2022-10-16T07:59:07;6.78;;;5.30;;
37445;SDS011;23307;51.136;14.942;2022-10-16T08:01:33;6.35;;;5.57;;
37445;SDS011;23307;51.136;14.942;2022-10-16T08:03:58;5.78;;;5.28;;
37445;SDS011;23307;51.136;14.942;2022-10-16T08:06:24;8.50;;;5.82;;
37445;SDS011;23307;51.136;14.942;2022-10-16T08:08:49;7.65;;;5.78;;
37445;SDS011;23307;51.136;14.942;2022-10-16T08:11:15;6.97;;;5.35;;
37445;SDS011;23307;51.136;14.942;2022-10-16T08:13:41;6.75;;;5.68;;
37445;SDS011;23307;51.136;14.942;2022-10-16T08:16:07;6.05;;;5.55;;
37445;SDS011;23307;51.136;14.942;2022-10-16T08:18:36;5.80;;;5.30;;
37445;SDS011;23307;51.136;14.942;2022-10-16T08:21:03;7.07;;;4.88;;
37445;SDS011;23307;51.136;14.942;2022-10-16T08:23:30;6.05;;;5.45;;
37445;SDS011;23307;51.136;14.942;2022-10-16T08:25:56;5.80;;;5.30;;
37445;SDS011;23307;51.136;14.942;2022-10-16T08:28:26;6.05;;;5.55;;
37445;SDS011;23307;51.136;14.942;2022-10-16T08:30:51;5.47;;;4.97;;
37445;SDS011;23307;51.136;14.942;2022-10-16T08:33:17;5.72;;;5.10;;
37445;SDS011;23307;51.136;14.942;2022-10-16T08:35:49;5.82;;;5.20;;
37445;SDS011;23307;51.136;14.942;2022-10-16T08:38:19;5.85;;;5.35;;
37445;SDS011;23307;51.136;14.942;2022-10-16T08:40:45;7.05;;;5.60;;
37445;SDS011;23307;51.136;14.942;2022-10-16T08:43:16;6.88;;;5.30;;
37445;SDS011;23307;51.136;14.942;2022-10-16T08:51:04;7.13;;;5.60;;
37445;SDS011;23307;51.136;14.942;2022-10-16T08:53:36;6.28;;;5.78;;
37445;SDS011;23307;51.136;14.942;2022-10-16T08:56:12;6.90;;;6.30;;
37445;SDS011;23307;51.136;14.942;2022-10-16T08:58:37;6.32;;;5.72;;
37445;SDS011;23307;51.136;14.942;2022-10-16T09:01:03;5.78;;;5.28;;
37445;SDS011;23307;51.136;14.942;2022-10-16T09:09:17;5.57;;;5.03;;
37445;SDS011;23307;51.136;14.942;2022-10-16T09:14:32;5.32;;;4.93;;
37445;SDS011;23307;51.136;14.942;2022-10-16T09:22:39;5.25;;;4.47;;
37445;SDS011;23307;51.136;14.942;2022-10-16T09:25:10;4.57;;;4.15;;
37445;SDS011;23307;51.136;14.942;2022-10-16T09:27:40;4.32;;;3.92;;
37445;SDS011;23307;51.136;14.942;2022-10-16T09:30:16;4.45;;;4.15;;
37445;SDS011;23307;51.136;14.942;2022-10-16T09:32:44;5.97;;;4.10;;
37445;SDS011;23307;51.136;14.942;2022-10-16T09:35:16;6.22;;;3.58;;
37445;SDS011;23307;51.136;14.942;2022-10-16T09:37:44;3.85;;;3.55;;
37445;SDS011;23307;51.136;14.942;2022-10-16T09:40:13;3.88;;;3.47;;
37445;SDS011;23307;51.136;14.942;2022-10-16T09:42:49;5.85;;;3.40;;
37445;SDS011;23307;51.136;14.942;2022-10-16T09:45:22;4.57;;;2.92;;
37445;SDS011;23307;51.136;14.942;2022-10-16T09:47:48;3.83;;;3.28;;
37445;SDS011;23307;51.136;14.942;2022-10-16T09:50:24;4.35;;;3.08;;
37445;SDS011;23307;51.136;14.942;2022-10-16T09:53:10;3.40;;;3.10;;
37445;SDS011;23307;51.136;14.942;2022-10-16T09:55:47;4.63;;;3.22;;
37445;SDS011;23307;51.136;14.942;2022-10-16T09:58:17;5.43;;;3.22;;
37445;SDS011;23307;51.136;14.942;2022-10-16T10:00:48;3.45;;;3.15;;
37445;SDS011;23307;51.136;14.942;2022-10-16T10:03:23;3.53;;;3.05;;
37445;SDS011;23307;51.136;14.942;2022-10-16T10:06:06;3.05;;;2.85;;
37445;SDS011;23307;51.136;14.942;2022-10-16T10:08:51;3.45;;;3.15;;
37445;SDS011;23307;51.136;14.942;2022-10-16T10:14:05;6.82;;;3.30;;
37445;SDS011;23307;51.136;14.942;2022-10-16T10:16:40;3.67;;;3.38;;
37445;SDS011;23307;51.136;14.942;2022-10-16T10:19:09;3.67;;;3.20;;
37445;SDS011;23307;51.136;14.942;2022-10-16T10:21:42;3.47;;;3.05;;
37445;SDS011;23307;51.136;14.942;2022-10-16T10:24:12;3.65;;;3.35;;
37445;SDS011;23307;51.136;14.942;2022-10-16T10:26:38;4.80;;;3.20;;
37445;SDS011;23307;51.136;14.942;2022-10-16T10:29:31;3.35;;;3.10;;
37445;SDS011;23307;51.136;14.942;2022-10-16T10:32:20;3.92;;;3.53;;
37445;SDS011;23307;51.136;14.942;2022-10-16T10:37:27;3.92;;;3.42;;
37445;SDS011;23307;51.136;14.942;2022-10-16T10:40:18;3.70;;;2.85;;
37445;SDS011;23307;51.136;14.942;2022-10-16T10:42:57;5.50;;;3.10;;
37445;SDS011;23307;51.136;14.942;2022-10-16T10:45:49;3.05;;;2.85;;
37445;SDS011;23307;51.136;14.942;2022-10-16T10:48:26;3.20;;;2.90;;
37445;SDS011;23307;51.136;14.942;2022-10-16T10:51:22;3.08;;;2.75;;
37445;SDS011;23307;51.136;14.942;2022-10-16T10:54:32;3.20;;;2.70;;
37445;SDS011;23307;51.136;14.942;2022-10-16T10:57:27;3.78;;;2.78;;
37445;SDS011;23307;51.136;14.942;2022-10-16T10:59:59;3.42;;;2.80;;
37445;SDS011;23307;51.136;14.942;2022-10-16T11:02:46;3.80;;;2.60;;
37445;SDS011;23307;51.136;14.942;2022-10-16T11:08:08;3.08;;;2.58;;
37445;SDS011;23307;51.136;14.942;2022-10-16T11:13:32;3.13;;;2.50;;
37445;SDS011;23307;51.136;14.942;2022-10-16T11:16:19;4.40;;;3.08;;
37445;SDS011;23307;51.136;14.942;2022-10-16T11:19:11;3.35;;;2.28;;
37445;SDS011;23307;51.136;14.942;2022-10-16T11:21:44;3.63;;;2.75;;
37445;SDS011;23307;51.136;14.942;2022-10-16T11:24:20;2.88;;;2.60;;
37445;SDS011;23307;51.136;14.942;2022-10-16T11:27:02;2.53;;;2.33;;
37445;SDS011;23307;51.136;14.942;2022-10-16T11:29:32;3.75;;;2.20;;
37445;SDS011;23307;51.136;14.942;2022-10-16T11:32:17;2.42;;;2.22;;
37445;SDS011;23307;51.136;14.942;2022-10-16T11:34:53;3.85;;;2.42;;
37445;SDS011;23307;51.136;14.942;2022-10-16T11:37:25;2.53;;;2.33;;
37445;SDS011;23307;51.136;14.942;2022-10-16T11:40:02;2.42;;;2.22;;
37445;SDS011;23307;51.136;14.942;2022-10-16T11:42:41;2.58;;;2.00;;
37445;SDS011;23307;51.136;14.942;2022-10-16T11:45:27;3.25;;;2.17;;
37445;SDS011;23307;51.136;14.942;2022-10-16T11:48:20;3.83;;;2.30;;
37445;SDS011;23307;51.136;14.942;2022-10-16T11:57:19;2.20;;;2.05;;
37445;SDS011;23307;51.136;14.942;2022-10-16T11:59:51;3.17;;;2.30;;
37445;SDS011;23307;51.136;14.942;2022-10-16T12:02:37;3.47;;;2.40;;
37445;SDS011;23307;51.136;14.942;2022-10-16T12:05:32;3.25;;;2.65;;
37445;SDS011;23307;51.136;14.942;2022-10-16T12:08:12;2.55;;;2.33;;
37445;SDS011;23307;51.136;14.942;2022-10-16T12:10:41;2.22;;;2.00;;
37445;SDS011;23307;51.136;14.942;2022-10-16T12:19:26;4.43;;;2.20;;
37445;SDS011;23307;51.136;14.942;2022-10-16T12:21:59;2.28;;;2.00;;
37445;SDS011;23307;51.136;14.942;2022-10-16T12:24:31;3.10;;;2.15;;
37445;SDS011;23307;51.136;14.942;2022-10-16T12:36:38;5.05;;;2.00;;
37445;SDS011;23307;51.136;14.942;2022-10-16T12:39:16;3.55;;;2.67;;
37445;SDS011;23307;51.136;14.942;2022-10-16T12:41:59;3.20;;;1.88;;
37445;SDS011;23307;51.136;14.942;2022-10-16T12:44:36;2.45;;;1.92;;
37445;SDS011;23307;51.136;14.942;2022-10-16T12:47:18;3.85;;;1.67;;
37445;SDS011;23307;51.136;14.942;2022-10-16T12:53:21;2.03;;;1.80;;
37445;SDS011;23307;51.136;14.942;2022-10-16T12:56:19;2.53;;;1.60;;
37445;SDS011;23307;51.136;14.942;2022-10-16T13:18:13;1.63;;;1.38;;
37445;SDS011;23307;51.136;14.942;2022-10-16T13:28:54;2.53;;;1.50;;
37445;SDS011;23307;51.136;14.942;2022-10-16T13:31:24;1.60;;;1.50;;
37445;SDS011;23307;51.136;14.942;2022-10-16T13:33:51;1.90;;;1.30;;
37445;SDS011;23307;51.136;14.942;2022-10-16T13:36:20;2.83;;;1.70;;
37445;SDS011;23307;51.136;14.942;2022-10-16T13:39:01;1.70;;;1.60;;
37445;SDS011;23307;51.136;14.942;2022-10-16T13:41:42;1.88;;;1.48;;
37445;SDS011;23307;51.136;14.942;2022-10-16T13:44:11;1.88;;;1.60;;
37445;SDS011;23307;51.136;14.942;2022-10-16T13:46:40;1.58;;;1.48;;
37445;SDS011;23307;51.136;14.942;2022-10-16T13:49:12;2.95;;;1.33;;
37445;SDS011;23307;51.136;14.942;2022-10-16T13:51:47;2.35;;;1.52;;
37445;SDS011;23307;51.136;14.942;2022-10-16T13:54:20;2.33;;;1.80;;
37445;SDS011;23307;51.136;14.942;2022-10-16T13:56:45;1.48;;;1.38;;
37445;SDS011;23307;51.136;14.942;2022-10-16T13:59:24;1.90;;;1.30;;
37445;SDS011;23307;51.136;14.942;2022-10-16T14:01:52;2.50;;;1.25;;
37445;SDS011;23307;51.136;14.942;2022-10-16T14:04:21;3.05;;;1.15;;
37445;SDS011;23307;51.136;14.942;2022-10-16T14:06:48;2.60;;;1.38;;
37445;SDS011;23307;51.136;14.942;2022-10-16T14:09:33;1.58;;;1.48;;
37445;SDS011;23307;51.136;14.942;2022-10-16T14:12:02;2.10;;;1.50;;
37445;SDS011;23307;51.136;14.942;2022-10-16T14:14:40;3.08;;;1.20;;
37445;SDS011;23307;51.136;14.942;2022-10-16T14:17:13;3.03;;;1.50;;
37445;SDS011;23307;51.136;14.942;2022-10-16T14:19:48;3.33;;;1.50;;
37445;SDS011;23307;51.136;14.942;2022-10-16T14:22:21;1.85;;;1.58;;
37445;SDS011;23307;51.136;14.942;2022-10-16T14:24:47;2.42;;;1.73;;
37445;SDS011;23307;51.136;14.942;2022-10-16T14:27:32;2.22;;;1.70;;
37445;SDS011;23307;51.136;14.942;2022-10-16T14:32:41;3.67;;;1.90;;
37445;SDS011;23307;51.136;14.942;2022-10-16T14:35:27;5.45;;;4.95;;
37445;SDS011;23307;51.136;14.942;2022-10-16T14:37:57;4.35;;;3.80;;
37445;SDS011;23307;51.136;14.942;2022-10-16T14:40:25;3.75;;;2.40;;
37445;SDS011;23307;51.136;14.942;2022-10-16T14:42:54;4.15;;;1.90;;
37445;SDS011;23307;51.136;14.942;2022-10-16T14:45:21;4.78;;;1.45;;
37445;SDS011;23307;51.136;14.942;2022-10-16T14:47:52;1.45;;;1.35;;
37445;SDS011;23307;51.136;14.942;2022-10-16T14:50:20;4.35;;;1.30;;
37445;SDS011;23307;51.136;14.942;2022-10-16T14:52:46;1.60;;;1.50;;
37445;SDS011;23307;51.136;14.942;2022-10-16T14:55:12;1.75;;;1.35;;
37445;SDS011;23307;51.136;14.942;2022-10-16T14:57:37;1.98;;;1.35;;
37445;SDS011;23307;51.136;14.942;2022-10-16T15:00:20;2.85;;;1.63;;
37445;SDS011;23307;51.136;14.942;2022-10-16T15:02:48;2.53;;;1.70;;
37445;SDS011;23307;51.136;14.942;2022-10-16T15:05:19;3.15;;;2.08;;
37445;SDS011;23307;51.136;14.942;2022-10-16T15:07:46;1.98;;;1.80;;
37445;SDS011;23307;51.136;14.942;2022-10-16T15:10:13;8.40;;;3.85;;
37445;SDS011;23307;51.136;14.942;2022-10-16T15:12:39;4.30;;;3.90;;
37445;SDS011;23307;51.136;14.942;2022-10-16T15:17:57;2.92;;;2.10;;
37445;SDS011;23307;51.136;14.942;2022-10-16T15:20:29;3.45;;;1.77;;
37445;SDS011;23307;51.136;14.942;2022-10-16T15:22:58;6.28;;;4.18;;
37445;SDS011;23307;51.136;14.942;2022-10-16T15:25:38;3.72;;;2.28;;
37445;SDS011;23307;51.136;14.942;2022-10-16T15:28:11;6.82;;;2.55;;
37445;SDS011;23307;51.136;14.942;2022-10-16T15:30:37;5.38;;;2.75;;
37445;SDS011;23307;51.136;14.942;2022-10-16T15:33:04;2.83;;;2.30;;
37445;SDS011;23307;51.136;14.942;2022-10-16T15:35:36;3.60;;;1.98;;
37445;SDS011;23307;51.136;14.942;2022-10-16T15:38:01;3.20;;;2.10;;
37445;SDS011;23307;51.136;14.942;2022-10-16T15:40:27;4.75;;;2.20;;
37445;SDS011;23307;51.136;14.942;2022-10-16T15:42:52;2.47;;;2.28;;
37445;SDS011;23307;51.136;14.942;2022-10-16T15:45:18;3.85;;;2.10;;
37445;SDS011;23307;51.136;14.942;2022-10-16T15:47:44;3.75;;;2.50;;
37445;SDS011;23307;51.136;14.942;2022-10-16T15:50:11;4.10;;;2.22;;
37445;SDS011;23307;51.136;14.942;2022-10-16T15:52:38;4.63;;;2.20;;
37445;SDS011;23307;51.136;14.942;2022-10-16T15:55:10;4.85;;;2.25;;
37445;SDS011;23307;51.136;14.942;2022-10-16T15:57:37;4.60;;;2.28;;
37445;SDS011;23307;51.136;14.942;2022-10-16T16:00:06;3.30;;;2.28;;
37445;SDS011;23307;51.136;14.942;2022-10-16T16:02:33;2.67;;;2.30;;
37445;SDS011;23307;51.136;14.942;2022-10-16T16:04:58;3.70;;;2.28;;
37445;SDS011;23307;51.136;14.942;2022-10-16T16:07:24;2.63;;;2.22;;
37445;SDS011;23307;51.136;14.942;2022-10-16T16:09:49;2.75;;;2.10;;
37445;SDS011;23307;51.136;14.942;2022-10-16T16:12:15;3.90;;;2.17;;
37445;SDS011;23307;51.136;14.942;2022-10-16T16:14:40;3.20;;;2.10;;
37445;SDS011;23307;51.136;14.942;2022-10-16T16:17:07;4.55;;;2.10;;
37445;SDS011;23307;51.136;14.942;2022-10-16T16:19:33;2.25;;;2.00;;
37445;SDS011;23307;51.136;14.942;2022-10-16T16:21:58;2.17;;;2.00;;
37445;SDS011;23307;51.136;14.942;2022-10-16T16:24:24;1.98;;;1.83;;
37445;SDS011;23307;51.136;14.942;2022-10-16T16:26:49;2.65;;;2.03;;
37445;SDS011;23307;51.136;14.942;2022-10-16T16:29:15;3.85;;;1.98;;
37445;SDS011;23307;51.136;14.942;2022-10-16T16:31:41;2.47;;;2.13;;
37445;SDS011;23307;51.136;14.942;2022-10-16T16:34:07;3.78;;;2.28;;
37445;SDS011;23307;51.136;14.942;2022-10-16T16:36:34;4.38;;;3.92;;
37445;SDS011;23307;51.136;14.942;2022-10-16T16:39:00;5.75;;;3.00;;